Time;durP1;ratioP1;P1;durP2;ratioP2;P2;SDS_P1;SDS_P2;PMS_P1;PMS_P2;Temp;Humidity;BMP_temperature;BMP_pressure;BME280_temperature;BME280_humidity;BME280_pressure;Samples;Min_cycle;Max_cycle;Signal;HPM_P1;HPM_P2
2023/03/11 00:01:40;;;;;;;0.17;0.17;;;;;;;7.78;100.00;97887.59;6208758;23;20005;-94
2023/03/11 00:04:06;;;;;;;0.32;0.32;;;;;;;7.77;100.00;97877.78;6210552;23;20113;-93
2023/03/11 00:06:34;;;;;;;0.10;0.10;;;;;;;7.86;100.00;97874.97;6206075;23;20009;-87
2023/03/11 00:09:00;;;;;;;1.10;1.08;;;;;;;7.91;100.00;97882.63;6208052;23;20456;-87
2023/03/11 00:11:26;;;;;;;0.20;0.20;;;;;;;8.01;100.00;97881.28;6210332;23;20028;-87
2023/03/11 00:13:51;;;;;;;0.22;0.22;;;;;;;8.00;100.00;97884.56;6207084;23;20044;-87
2023/03/11 00:16:17;;;;;;;0.00;0.00;;;;;;;8.07;100.00;97898.75;6210174;23;20013;-87
2023/03/11 00:18:42;;;;;;;0.20;0.20;;;;;;;8.14;100.00;97903.91;6207881;23;20080;-87
2023/03/11 00:21:15;;;;;;;0.00;0.00;;;;;;;8.14;100.00;97892.88;6182486;23;20399;-87
2023/03/11 00:23:41;;;;;;;0.70;0.70;;;;;;;8.20;100.00;97899.28;6184416;23;20052;-94
2023/03/11 00:26:06;;;;;;;0.00;0.00;;;;;;;8.19;100.00;97903.25;6209734;23;20036;-94
2023/03/11 00:28:32;;;;;;;2.38;1.33;;;;;;;8.21;100.00;97898.00;6183161;23;20017;-93
2023/03/11 00:30:57;;;;;;;0.20;0.20;;;;;;;8.14;100.00;97879.06;6209509;23;20028;-94
2023/03/11 00:33:23;;;;;;;0.52;0.47;;;;;;;8.21;100.00;97889.72;6208176;23;20431;-94
2023/03/11 00:35:49;;;;;;;0.95;0.77;;;;;;;8.27;100.00;97898.91;6210701;23;20339;-94
2023/03/11 00:38:15;;;;;;;0.43;0.38;;;;;;;8.26;100.00;97889.09;6210520;23;20012;-95
2023/03/11 00:40:42;;;;;;;0.10;0.10;;;;;;;8.32;100.00;97898.28;6207891;23;20023;-96
2023/03/11 00:43:08;;;;;;;0.73;0.73;;;;;;;8.38;100.00;97879.81;6208662;23;20012;-96
2023/03/11 00:45:35;;;;;;;1.10;1.00;;;;;;;8.36;100.00;97889.81;6209044;23;20490;-95
2023/03/11 00:48:00;;;;;;;0.00;0.00;;;;;;;8.31;100.00;97891.22;6182561;23;20005;-95
2023/03/11 00:50:28;;;;;;;1.35;1.27;;;;;;;8.37;100.00;97905.88;6208562;23;20020;-95
2023/03/11 00:52:54;;;;;;;0.73;0.73;;;;;;;8.33;100.00;97902.56;6208818;23;20028;-95
2023/03/11 00:55:29;;;;;;;0.17;0.17;;;;;;;8.37;100.00;97914.19;6208438;23;20001;-95
2023/03/11 00:57:59;;;;;;;0.43;0.35;;;;;;;8.26;100.00;97913.94;6208606;23;20027;-96
2023/03/11 01:00:29;;;;;;;0.95;0.95;;;;;;;8.22;100.00;97916.13;6184361;23;20017;-95
2023/03/11 01:02:55;;;;;;;1.27;0.93;;;;;;;8.21;100.00;97911.09;6210060;23;20075;-94
2023/03/11 01:05:24;;;;;;;0.10;0.10;;;;;;;8.14;100.00;97931.53;6209040;23;20308;-87
2023/03/11 01:07:53;;;;;;;0.13;0.13;;;;;;;8.12;100.00;97936.75;6207489;23;20023;-87
2023/03/11 01:10:19;;;;;;;0.30;0.30;;;;;;;8.10;100.00;97939.22;6181997;23;20108;-87
2023/03/11 01:12:45;;;;;;;0.00;0.00;;;;;;;8.10;100.00;97939.22;6208184;23;20547;-86
2023/03/11 01:15:34;;;;;;;5.05;1.38;;;;;;;8.25;100.00;97939.28;6208768;23;20178;-87
2023/03/11 01:18:01;;;;;;;0.10;0.10;;;;;;;8.26;100.00;97941.56;6197569;23;20035;-87
2023/03/11 01:20:30;;;;;;;0.82;0.82;;;;;;;8.26;100.00;97936.03;6181954;23;20335;-87
2023/03/11 01:22:56;;;;;;;0.43;0.40;;;;;;;8.27;100.00;97931.28;6209068;23;20430;-87
2023/03/11 01:25:22;;;;;;;0.00;0.00;;;;;;;8.27;100.00;97932.03;6208603;23;20015;-87
2023/03/11 01:27:49;;;;;;;4.57;2.40;;;;;;;8.27;100.00;97921.00;6209371;23;20506;-87
2023/03/11 01:30:17;;;;;;;2.53;1.00;;;;;;;8.29;100.00;97926.81;6208570;23;20028;-87
2023/03/11 01:32:44;;;;;;;0.15;0.15;;;;;;;8.25;100.00;97912.41;6206672;23;20029;-95
2023/03/11 01:35:12;;;;;;;0.00;0.00;;;;;;;8.25;100.00;97906.88;6185319;23;20023;-95
2023/03/11 01:37:38;;;;;;;0.15;0.15;;;;;;;8.26;100.00;97897.38;6208703;23;20051;-95
2023/03/11 01:40:04;;;;;;;0.50;0.47;;;;;;;8.22;100.00;97901.53;6209811;23;20436;-95
2023/03/11 01:42:30;;;;;;;0.20;0.20;;;;;;;8.25;100.00;97906.88;6208610;23;20005;-95
2023/03/11 01:44:56;;;;;;;0.38;0.35;;;;;;;8.28;100.00;97925.28;6211257;23;20092;-96
2023/03/11 01:47:37;;;;;;;0.43;0.43;;;;;;;8.26;100.00;97925.00;6184851;23;20008;-95
2023/03/11 01:50:06;;;;;;;0.30;0.30;;;;;;;8.22;100.00;97927.16;6210201;23;20017;-87
2023/03/11 01:52:31;;;;;;;0.73;0.55;;;;;;;8.18;100.00;97923.81;6208755;23;20004;-88
2023/03/11 01:54:57;;;;;;;0.45;0.45;;;;;;;8.20;100.00;97926.13;6209663;23;20023;-87
2023/03/11 01:57:22;;;;;;;0.65;0.65;;;;;;;8.18;100.00;97928.56;6208500;23;20036;-87
2023/03/11 01:59:51;;;;;;;0.03;0.03;;;;;;;8.14;100.00;97928.00;6184019;23;20029;-87
2023/03/11 02:06:17;;;;;;;0.30;0.30;;;;;;;8.16;100.00;97909.75;6211115;23;20497;-87
2023/03/11 02:08:44;;;;;;;0.20;0.20;;;;;;;8.12;100.00;97917.44;6209180;23;20017;-87
2023/03/11 02:11:32;;;;;;;0.17;0.10;;;;;;;7.99;100.00;97903.09;6207166;23;20040;-86
2023/03/11 02:14:02;;;;;;;0.15;0.15;;;;;;;8.01;100.00;97919.94;6183065;23;20423;-87
2023/03/11 02:16:28;;;;;;;0.00;0.00;;;;;;;8.00;100.00;97929.50;6183280;23;20064;-87
2023/03/11 02:18:53;;;;;;;0.10;0.10;;;;;;;7.98;100.00;97926.41;6182405;23;20473;-87
2023/03/11 02:21:28;;;;;;;0.05;0.05;;;;;;;8.00;100.00;97935.00;6159200;23;20027;-95
2023/03/11 02:23:56;;;;;;;0.10;0.10;;;;;;;7.97;100.00;97936.69;6187407;23;20020;-95
2023/03/11 02:26:25;;;;;;;0.30;0.30;;;;;;;7.95;100.00;97935.66;6210733;23;20004;-95
2023/03/11 02:28:52;;;;;;;0.55;0.55;;;;;;;7.82;100.00;97915.78;6211339;23;20013;-95
2023/03/11 02:31:17;;;;;;;0.80;0.55;;;;;;;7.89;100.00;97937.50;6184643;23;20451;-95
2023/03/11 02:33:44;;;;;;;0.00;0.00;;;;;;;7.84;100.00;97918.84;6211742;23;20052;-95
2023/03/11 02:36:30;;;;;;;0.15;0.15;;;;;;;7.82;100.00;97918.53;6186523;23;20020;-96
2023/03/11 02:38:56;;;;;;;0.55;0.55;;;;;;;7.82;100.00;97924.06;6187625;23;20017;-96
2023/03/11 02:41:22;;;;;;;0.28;0.28;;;;;;;7.82;100.00;97929.59;6186124;23;20020;-96
2023/03/11 02:43:48;;;;;;;1.27;0.57;;;;;;;7.83;100.00;97931.13;6210808;23;20039;-96
2023/03/11 02:46:19;;;;;;;0.30;0.30;;;;;;;7.79;100.00;97913.97;6187938;23;20100;-96
2023/03/11 02:48:46;;;;;;;0.00;0.00;;;;;;;7.83;100.00;97903.53;6212360;23;20024;-87
2023/03/11 02:51:12;;;;;;;0.65;0.65;;;;;;;7.80;100.00;97896.97;6181072;23;20012;-86
2023/03/11 02:53:42;;;;;;;0.55;0.55;;;;;;;7.78;100.00;97890.38;6207585;23;20028;-87
2023/03/11 02:56:07;;;;;;;0.20;0.20;;;;;;;7.82;100.00;97899.22;6205699;23;20009;-87
2023/03/11 02:58:33;;;;;;;0.20;0.20;;;;;;;7.75;100.00;97883.03;6156939;23;20013;-88
2023/03/11 03:00:59;;;;;;;1.23;1.00;;;;;;;7.71;100.00;97874.94;6182937;23;20012;-87
2023/03/11 03:03:25;;;;;;;0.10;0.10;;;;;;;7.73;100.00;97889.00;6208785;23;20016;-87
2023/03/11 03:05:50;;;;;;;11.70;1.10;;;;;;;7.73;100.00;97893.75;6184319;23;20020;-87
2023/03/11 03:08:16;;;;;;;0.10;0.10;;;;;;;7.68;100.00;97891.66;6183737;23;20016;-87
2023/03/11 03:10:41;;;;;;;0.00;0.00;;;;;;;7.71;100.00;97897.00;6183284;23;20020;-87
2023/03/11 03:13:07;;;;;;;0.25;0.25;;;;;;;7.62;100.00;97905.31;6208610;23;20394;-87
2023/03/11 03:15:33;;;;;;;0.00;0.00;;;;;;;7.63;100.00;97922.66;6183798;23;20514;-87
2023/03/11 03:17:59;;;;;;;0.10;0.10;;;;;;;7.66;100.00;97932.75;6186797;23;20009;-87
2023/03/11 03:20:25;;;;;;;0.35;0.35;;;;;;;7.67;100.00;97945.31;6183697;23;20474;-88
2023/03/11 03:22:55;;;;;;;0.03;0.03;;;;;;;7.61;100.00;97941.66;6184498;23;20409;-87
2023/03/11 03:25:25;;;;;;;0.00;0.00;;;;;;;7.58;100.00;97948.13;6184584;23;20017;-87
2023/03/11 03:27:51;;;;;;;0.00;0.00;;;;;;;7.55;100.00;97960.09;6207732;23;20112;-87
2023/03/11 03:30:18;;;;;;;0.00;0.00;;;;;;;7.55;100.00;97962.84;6183628;23;20100;-87
2023/03/11 03:32:43;;;;;;;0.30;0.30;;;;;;;7.46;100.00;97952.63;6181291;23;20791;-86
2023/03/11 03:35:12;;;;;;;0.00;0.00;;;;;;;7.55;100.00;97971.13;6194624;23;20009;-96
2023/03/11 03:37:55;;;;;;;0.00;0.00;;;;;;;7.58;100.00;97965.44;6211278;23;20062;-96
2023/03/11 03:40:21;;;;;;;0.00;0.00;;;;;;;7.59;100.00;97960.69;6210724;23;20056;-96
2023/03/11 03:42:47;;;;;;;0.00;0.00;;;;;;;7.60;100.00;97964.97;6210646;23;20076;-94
2023/03/11 03:45:13;;;;;;;0.00;0.00;;;;;;;7.57;100.00;97969.41;6210883;23;20020;-96
2023/03/11 03:47:39;;;;;;;0.03;0.03;;;;;;;7.59;100.00;97969.72;6183438;23;20351;-87
2023/03/11 03:50:07;;;;;;;0.10;0.10;;;;;;;7.61;100.00;97975.53;6160502;23;20024;-87
2023/03/11 03:52:34;;;;;;;1.10;1.00;;;;;;;7.58;100.00;97984.75;6182796;23;20020;-87
2023/03/11 03:55:00;;;;;;;0.00;0.00;;;;;;;7.61;100.00;97991.31;6210373;23;20008;-87
2023/03/11 03:57:28;;;;;;;0.03;0.03;;;;;;;7.63;100.00;97988.88;6182159;23;20320;-87
2023/03/11 03:59:53;;;;;;;0.10;0.10;;;;;;;7.65;100.00;98000.19;6184075;23;20021;-87
2023/03/11 04:02:19;;;;;;;1.65;0.43;;;;;;;7.64;100.00;98012.47;6208386;23;20009;-87
2023/03/11 04:04:45;;;;;;;0.00;0.00;;;;;;;7.46;100.00;98014.06;6185523;23;20509;-88
2023/03/11 04:07:11;;;;;;;0.15;0.15;;;;;;;7.58;100.00;98039.16;6184505;23;20020;-87
2023/03/11 04:09:41;;;;;;;0.00;0.00;;;;;;;7.44;100.00;98046.84;6182995;23;20484;-87
2023/03/11 04:12:07;;;;;;;0.10;0.10;;;;;;;7.35;100.00;98060.69;6182266;23;20462;-88
2023/03/11 04:14:34;;;;;;;0.55;0.55;;;;;;;7.25;100.00;98056.41;6187137;23;20056;-95
2023/03/11 04:17:00;;;;;;;0.52;0.30;;;;;;;7.22;100.00;98048.28;6212325;23;19989;-96
2023/03/11 04:19:26;;;;;;;0.00;0.00;;;;;;;7.16;100.00;98037.09;6212202;23;20057;-96
2023/03/11 04:21:55;;;;;;;0.00;0.00;;;;;;;7.13;100.00;98043.56;6239359;23;20005;-96
2023/03/11 04:24:23;;;;;;;0.00;0.00;;;;;;;6.97;100.00;98016.31;6203997;23;20022;-96
2023/03/11 04:26:49;;;;;;;0.10;0.10;;;;;;;7.21;100.00;98047.53;6155209;23;20013;-96
2023/03/11 04:29:18;;;;;;;0.10;0.10;;;;;;;6.96;100.00;97998.25;6154851;23;20017;-96
2023/03/11 04:31:48;;;;;;;0.00;0.00;;;;;;;6.94;100.00;97995.97;6148296;23;20012;-87
2023/03/11 04:34:13;;;;;;;0.15;0.15;;;;;;;7.08;100.00;98030.38;6125154;23;20189;-86
2023/03/11 04:36:39;;;;;;;0.00;0.00;;;;;;;7.15;100.00;98035.59;6123852;23;20017;-86
2023/03/11 04:39:06;;;;;;;0.00;0.00;;;;;;;7.10;100.00;98019.66;6101858;23;20013;-87
2023/03/11 04:41:39;;;;;;;0.00;0.00;;;;;;;7.15;100.00;98013.53;6124551;23;20301;-87
2023/03/11 04:44:05;;;;;;;0.00;0.00;;;;;;;7.16;100.00;98009.53;6140347;23;20041;-96
2023/03/11 05:03:04;;;;;;;0.47;0.47;;;;;;;6.84;100.00;97985.41;6171440;23;20111;-87
2023/03/11 05:05:30;;;;;;;0.00;0.00;;;;;;;7.00;100.00;98021.66;6154231;23;20440;-87
2023/03/11 05:07:56;;;;;;;0.00;0.00;;;;;;;6.92;100.00;98014.16;6129034;23;20041;-86
2023/03/11 05:10:22;;;;;;;0.00;0.00;;;;;;;6.97;100.00;98033.63;6104846;23;20364;-87
2023/03/11 05:12:52;;;;;;;0.00;0.00;;;;;;;6.94;100.00;98051.09;6104361;23;20029;-87
2023/03/11 05:15:19;;;;;;;0.00;0.00;;;;;;;6.83;100.00;98053.56;6107058;23;20035;-87
2023/03/11 05:17:45;;;;;;;0.00;0.00;;;;;;;6.82;100.00;98071.31;6131011;23;20012;-87
2023/03/11 05:20:11;;;;;;;0.10;0.10;;;;;;;6.66;100.00;98057.06;6179980;23;20008;-86
2023/03/11 05:22:37;;;;;;;0.00;0.00;;;;;;;6.63;100.00;98082.78;6130394;23;20087;-87
2023/03/11 05:25:03;;;;;;;0.00;0.00;;;;;;;6.62;100.00;98090.25;6131075;23;20013;-87
2023/03/11 05:27:29;;;;;;;0.20;0.20;;;;;;;6.57;100.00;98088.88;6129509;23;20040;-87
2023/03/11 05:29:56;;;;;;;0.38;0.38;;;;;;;6.59;100.00;98101.44;6166553;23;20400;-95
2023/03/11 05:32:23;;;;;;;1.70;1.60;;;;;;;6.38;100.00;98094.81;6143924;23;20037;-96
2023/03/11 05:34:51;;;;;;;1.63;1.42;;;;;;;6.47;100.00;98106.59;6127474;23;20064;-96
2023/03/11 05:37:17;;;;;;;2.25;2.05;;;;;;;6.25;100.00;98094.94;6161736;23;20041;-96
2023/03/11 05:39:45;;;;;;;0.73;0.73;;;;;;;6.24;100.00;98085.13;6162700;23;20040;-96
2023/03/11 05:42:12;;;;;;;0.25;0.25;;;;;;;6.15;100.00;98079.59;6162296;23;20016;-88
2023/03/11 05:44:38;;;;;;;0.08;0.08;;;;;;;6.29;100.00;98111.31;6129775;23;20092;-87
2023/03/11 05:47:04;;;;;;;0.70;0.55;;;;;;;6.29;100.00;98123.09;6154764;23;20082;-88
2023/03/11 05:49:30;;;;;;;0.32;0.32;;;;;;;6.17;100.00;98132.22;6105767;23;20740;-88
2023/03/11 05:51:56;;;;;;;0.00;0.00;;;;;;;6.09;100.00;98126.22;6128586;23;20024;-87
2023/03/11 05:54:23;;;;;;;0.00;0.00;;;;;;;5.87;100.00;98099.97;6154168;23;20017;-88
2023/03/11 05:56:50;;;;;;;0.15;0.15;;;;;;;6.04;100.00;98134.31;6099224;23;20044;-88
2023/03/11 05:59:17;;;;;;;0.30;0.30;;;;;;;5.95;100.00;98137.78;6095518;23;20016;-96
2023/03/11 06:01:45;;;;;;;0.10;0.10;;;;;;;5.84;100.00;98131.13;6180396;23;20025;-96
2023/03/11 06:04:11;;;;;;;0.00;0.00;;;;;;;5.85;100.00;98138.16;6155697;23;19997;-96
2023/03/11 06:06:39;;;;;;;0.03;0.03;;;;;;;5.78;100.00;98165.94;6177827;23;20093;-96
2023/03/11 06:09:05;;;;;;;0.10;0.10;;;;;;;5.69;100.00;98152.13;6122385;23;20016;-96
2023/03/11 06:11:32;;;;;;;0.35;0.35;;;;;;;5.69;100.00;98163.13;6144088;23;20017;-96
2023/03/11 06:13:58;;;;;;;0.03;0.03;;;;;;;5.59;100.00;98160.31;6166727;23;20028;-96
2023/03/11 06:16:25;;;;;;;0.03;0.03;;;;;;;5.53;100.00;98150.38;6160610;23;20025;-96
2023/03/11 06:18:52;;;;;;;0.47;0.47;;;;;;;5.62;100.00;98162.16;6160716;23;20064;-96
2023/03/11 06:21:21;;;;;;;0.00;0.00;;;;;;;5.64;100.00;98161.72;6131640;23;20423;-88
2023/03/11 06:23:46;;;;;;;0.00;0.00;;;;;;;5.66;100.00;98164.03;6129062;23;20009;-87
2023/03/11 06:26:14;;;;;;;0.00;0.00;;;;;;;5.63;100.00;98165.69;6129709;23;20095;-88
2023/03/11 06:28:43;;;;;;;0.00;0.00;;;;;;;5.69;100.00;98183.16;6128219;23;20066;-87
2023/03/11 06:31:14;;;;;;;0.28;0.28;;;;;;;5.66;100.00;98175.03;6127949;23;20017;-87
2023/03/11 06:33:40;;;;;;;0.10;0.10;;;;;;;5.66;100.00;98181.31;6127652;23;20021;-88
2023/03/11 06:36:07;;;;;;;0.00;0.00;;;;;;;5.69;100.00;98190.66;6105654;23;20016;-91
2023/03/11 06:38:33;;;;;;;0.00;0.00;;;;;;;5.72;100.00;98200.75;6152451;23;20016;-88
2023/03/11 06:41:03;;;;;;;0.00;0.00;;;;;;;5.76;100.00;98206.88;6129153;23;20440;-88
2023/03/11 06:43:30;;;;;;;0.00;0.00;;;;;;;5.83;100.00;98209.38;6152647;23;20337;-88
2023/03/11 06:45:57;;;;;;;0.10;0.10;;;;;;;5.96;100.00;98199.88;6128904;23;20025;-85
2023/03/11 06:48:24;;;;;;;0.00;0.00;;;;;;;6.15;100.00;98219.97;6127681;23;20344;-85
2023/03/11 06:50:55;;;;;;;0.22;0.22;;;;;;;6.28;100.00;98223.41;6099656;23;20024;-87
2023/03/11 06:53:22;;;;;;;0.00;0.00;;;;;;;6.44;100.00;98225.94;6093835;23;20053;-86
2023/03/11 06:56:02;;;;;;;0.05;0.05;;;;;;;6.48;98.88;98223.81;6155240;23;20008;-93
2023/03/11 06:58:32;;;;;;;0.00;0.00;;;;;;;6.65;98.12;98234.59;6131530;23;20021;-95
2023/03/11 07:01:07;;;;;;;0.30;0.30;;;;;;;6.73;90.03;98233.09;6131754;23;20010;-93
2023/03/11 07:03:33;;;;;;;0.00;0.00;;;;;;;6.77;94.38;98217.19;6156478;23;20021;-95
2023/03/11 07:05:58;;;;;;;0.00;0.00;;;;;;;6.94;83.89;98232.22;6157822;23;20013;-95
2023/03/11 07:08:25;;;;;;;0.00;0.00;;;;;;;6.93;74.27;98230.69;6156793;23;20019;-95
2023/03/11 07:11:08;;;;;;;0.00;0.00;;;;;;;6.95;74.20;98237.31;6132648;23;20041;-96
2023/03/11 07:13:35;;;;;;;0.10;0.10;;;;;;;6.98;71.64;98241.13;6128046;23;20021;-88
2023/03/11 07:16:07;;;;;;;0.55;0.55;;;;;;;7.02;62.34;98239.00;6128157;23;20016;-87
2023/03/11 07:18:34;;;;;;;0.05;0.05;;;;;;;6.92;58.74;98243.72;6151433;23;20130;-88
2023/03/11 07:21:01;;;;;;;0.00;0.00;;;;;;;7.02;58.43;98261.03;6127795;23;20377;-87
2023/03/11 07:23:27;;;;;;;0.00;0.00;;;;;;;7.08;58.00;98248.19;6127766;23;20577;-87
2023/03/11 07:25:54;;;;;;;0.65;0.52;;;;;;;7.02;55.58;98258.28;6181234;23;20005;-87
2023/03/11 07:28:24;;;;;;;0.00;0.00;;;;;;;7.15;55.93;98253.41;6179757;23;20879;-88
2023/03/11 07:30:50;;;;;;;0.22;0.22;;;;;;;7.16;54.17;98249.41;6123133;23;20103;-88
2023/03/11 07:33:16;;;;;;;0.00;0.00;;;;;;;7.16;53.44;98273.50;6142778;23;20041;-88
2023/03/11 07:35:42;;;;;;;0.00;0.00;;;;;;;7.09;51.74;98260.75;6153622;23;20014;-87
2023/03/11 07:38:07;;;;;;;0.00;0.00;;;;;;;7.21;53.59;98262.59;6130930;23;20124;-87
2023/03/11 07:40:33;;;;;;;0.20;0.20;;;;;;;7.31;47.51;98260.66;6180266;23;20023;-87
2023/03/11 07:42:59;;;;;;;0.00;0.00;;;;;;;7.39;48.56;98265.41;6153201;23;20092;-87
2023/03/11 07:45:24;;;;;;;0.00;0.00;;;;;;;7.25;47.70;98277.03;6152941;23;20056;-87
2023/03/11 07:47:50;;;;;;;0.00;0.00;;;;;;;7.21;47.85;98284.66;6154758;23;20019;-88
2023/03/11 07:50:16;;;;;;;0.00;0.00;;;;;;;7.15;49.53;98269.97;6154192;23;20017;-88
2023/03/11 07:52:42;;;;;;;0.17;0.17;;;;;;;7.06;49.05;98277.44;6156191;23;20013;-94
2023/03/11 07:55:08;;;;;;;0.00;0.00;;;;;;;7.11;48.74;98285.88;6181736;23;20020;-95
2023/03/11 07:57:34;;;;;;;0.47;0.47;;;;;;;7.08;49.57;98297.81;6154506;23;20040;-94
2023/03/11 08:00:02;;;;;;;0.30;0.30;;;;;;;7.04;51.05;98286.16;6131512;23;20072;-95
2023/03/11 08:02:37;;;;;;;0.45;0.45;;;;;;;7.11;48.76;98298.91;6157906;23;20332;-92
2023/03/11 08:05:03;;;;;;;0.00;0.00;;;;;;;7.16;50.14;98310.09;6181281;23;20017;-93
2023/03/11 08:07:31;;;;;;;0.10;0.10;;;;;;;7.23;50.49;98314.56;6181106;23;20015;-93
2023/03/11 08:09:56;;;;;;;0.20;0.20;;;;;;;7.18;49.99;98318.69;6127516;23;20351;-86
2023/03/11 08:12:22;;;;;;;0.00;0.00;;;;;;;7.23;49.99;98306.28;6153669;23;20021;-88
2023/03/11 08:14:47;;;;;;;0.00;0.00;;;;;;;7.59;48.67;98320.16;6178025;23;20484;-86
2023/03/11 08:17:13;;;;;;;0.20;0.20;;;;;;;7.58;48.15;98306.78;6155551;23;20032;-86
2023/03/11 08:19:38;;;;;;;0.00;0.00;;;;;;;7.65;47.15;98312.00;6155750;23;20012;-87
2023/03/11 08:22:04;;;;;;;0.00;0.00;;;;;;;7.76;46.96;98318.63;6180359;23;20013;-86
2023/03/11 08:24:29;;;;;;;0.28;0.20;;;;;;;7.65;45.80;98306.47;6181789;23;20017;-86
2023/03/11 08:26:55;;;;;;;0.10;0.10;;;;;;;7.46;45.14;98300.97;6155346;23;20443;-87
2023/03/11 08:29:22;;;;;;;0.57;0.38;;;;;;;7.41;45.32;98320.88;6149233;23;20039;-86
2023/03/11 08:31:50;;;;;;;0.00;0.00;;;;;;;7.47;45.22;98323.81;6180423;23;20400;-86
2023/03/11 08:34:16;;;;;;;0.00;0.00;;;;;;;7.63;44.36;98342.84;6179446;23;20040;-87
2023/03/11 08:36:42;;;;;;;0.15;0.15;;;;;;;7.94;44.35;98328.91;6155257;23;20451;-86
2023/03/11 08:39:08;;;;;;;0.20;0.20;;;;;;;7.82;42.82;98327.06;6180832;23;20147;-86
2023/03/11 08:41:33;;;;;;;0.10;0.10;;;;;;;7.80;44.25;98348.84;6177463;23;20004;-87
2023/03/11 08:43:59;;;;;;;0.00;0.00;;;;;;;7.95;47.08;98341.47;6151606;23;20448;-86
2023/03/11 08:46:27;;;;;;;0.00;0.00;;;;;;;8.08;43.61;98333.81;6184472;23;20494;-86
2023/03/11 08:48:54;;;;;;;0.10;0.10;;;;;;;8.33;43.55;98341.03;6161694;23;20028;-87
2023/03/11 08:51:19;;;;;;;0.00;0.00;;;;;;;8.60;43.46;98351.25;6187149;23;20069;-85
2023/03/11 08:53:45;;;;;;;0.10;0.10;;;;;;;8.68;41.69;98352.47;6178282;23;20021;-85
2023/03/11 08:56:11;;;;;;;0.00;0.00;;;;;;;8.90;42.13;98328.13;6179651;23;20045;-86
2023/03/11 08:58:36;;;;;;;0.20;0.20;;;;;;;9.18;42.19;98346.13;6151609;23;20463;-86
2023/03/11 09:01:02;;;;;;;0.00;0.00;;;;;;;9.38;41.22;98354.63;6153565;23;20021;-86
2023/03/11 09:03:31;;;;;;;0.20;0.20;;;;;;;9.38;40.49;98350.34;6152920;23;20013;-86
2023/03/11 09:05:57;;;;;;;0.00;0.00;;;;;;;9.31;38.04;98354.97;6180055;23;20017;-93
2023/03/11 09:08:23;;;;;;;0.10;0.10;;;;;;;9.11;38.04;98346.47;6180118;23;20080;-92
2023/03/11 09:10:49;;;;;;;0.10;0.10;;;;;;;9.42;39.31;98364.78;6180109;23;20056;-91
2023/03/11 09:13:14;;;;;;;0.38;0.30;;;;;;;9.51;39.84;98359.19;6156009;23;20096;-93
2023/03/11 09:15:40;;;;;;;0.00;0.00;;;;;;;9.55;38.28;98366.06;6182730;23;20050;-91
2023/03/11 09:18:07;;;;;;;0.10;0.10;;;;;;;9.48;37.53;98365.66;6171583;23;19993;-90
2023/03/11 09:20:36;;;;;;;1.65;0.45;;;;;;;9.48;39.06;98380.28;6197977;23;20401;-93
2023/03/11 09:23:01;;;;;;;0.00;0.00;;;;;;;9.80;39.65;98387.75;6182771;23;20016;-91
2023/03/11 09:25:27;;;;;;;0.10;0.10;;;;;;;9.99;38.38;98373.81;6182225;23;20013;-91
2023/03/11 09:27:52;;;;;;;0.00;0.00;;;;;;;10.27;39.65;98389.00;6179776;23;20372;-91
2023/03/11 09:30:18;;;;;;;0.35;0.20;;;;;;;10.33;36.05;98376.00;6183362;23;20017;-91
2023/03/11 09:32:44;;;;;;;0.00;0.00;;;;;;;10.44;34.95;98358.81;6133753;23;20032;-93
2023/03/11 09:35:09;;;;;;;0.05;0.05;;;;;;;10.25;35.36;98358.97;6128521;23;20018;-91
2023/03/11 09:37:35;;;;;;;0.20;0.20;;;;;;;10.00;34.86;98375.31;6181773;23;20496;-93
2023/03/11 09:40:00;;;;;;;0.85;0.85;;;;;;;9.95;35.98;98385.03;6183450;23;20009;-92
2023/03/11 09:42:35;;;;;;;1.38;0.43;;;;;;;9.98;36.19;98367.50;6181441;23;20005;-92
2023/03/11 09:45:01;;;;;;;0.10;0.10;;;;;;;10.09;36.14;98378.03;6182952;23;20017;-92
2023/03/11 09:47:58;;;;;;;0.00;0.00;;;;;;;10.42;37.22;98380.72;6181267;23;20063;-92
2023/03/11 09:50:32;;;;;;;0.00;0.00;;;;;;;10.70;35.94;98365.34;6154642;23;20020;-91
2023/03/11 09:53:07;;;;;;;0.08;0.08;;;;;;;10.69;33.82;98403.41;6129436;23;20044;-86
2023/03/11 09:55:43;;;;;;;0.25;0.20;;;;;;;10.57;34.58;98390.56;6153303;23;20063;-86
2023/03/11 09:58:36;;;;;;;0.00;0.00;;;;;;;10.62;35.21;98395.47;6153816;23;20027;-86
2023/03/11 10:01:32;;;;;;;0.20;0.20;;;;;;;11.04;35.03;98406.25;6140338;23;20025;-86
2023/03/11 10:04:12;;;;;;;0.00;0.00;;;;;;;10.98;32.46;98402.63;6127935;23;20662;-86
2023/03/11 10:06:38;;;;;;;0.95;0.70;;;;;;;11.06;32.80;98420.44;6153327;23;20016;-86
2023/03/11 10:09:34;;;;;;;0.30;0.20;;;;;;;11.13;34.23;98411.72;6129892;23;20028;-87
2023/03/11 10:12:22;;;;;;;0.20;0.10;;;;;;;11.38;33.36;98412.34;6153695;23;20136;-87
2023/03/11 10:14:57;;;;;;;0.00;0.00;;;;;;;11.32;32.55;98415.06;6164065;23;20356;-86
2023/03/11 10:17:35;;;;;;;0.17;0.17;;;;;;;11.38;32.33;98423.44;6181107;23;20016;-87
2023/03/11 10:20:26;;;;;;;0.00;0.00;;;;;;;11.31;32.74;98418.28;6128223;23;20032;-87
2023/03/11 10:23:02;;;;;;;0.00;0.00;;;;;;;11.52;32.09;98417.13;6137878;23;20017;-87
2023/03/11 10:25:39;;;;;;;0.10;0.10;;;;;;;11.82;33.58;98426.91;6179727;23;20554;-87
2023/03/11 10:28:09;;;;;;;0.03;0.03;;;;;;;11.83;33.55;98420.13;6180410;23;20112;-87
2023/03/11 10:30:46;;;;;;;0.40;0.20;;;;;;;11.84;31.92;98424.44;6128894;23;20802;-87
2023/03/11 10:33:23;;;;;;;0.00;0.00;;;;;;;11.87;32.94;98428.25;6154030;23;20095;-86
2023/03/11 10:35:52;;;;;;;0.00;0.00;;;;;;;11.72;32.42;98431.06;6180967;23;20522;-86
2023/03/11 10:38:25;;;;;;;0.00;0.00;;;;;;;11.52;32.46;98439.34;6124607;23;20017;-86
2023/03/11 10:40:54;;;;;;;0.00;0.00;;;;;;;11.52;32.27;98434.53;6132103;23;20017;-92
2023/03/11 10:43:40;;;;;;;0.15;0.15;;;;;;;11.72;32.21;98419.19;6156115;23;20108;-92
2023/03/11 10:46:15;;;;;;;0.00;0.00;;;;;;;11.77;32.38;98416.47;6136545;23;20076;-90
2023/03/11 10:48:41;;;;;;;0.00;0.00;;;;;;;12.06;33.54;98438.59;6183956;23;20322;-92
2023/03/11 10:51:12;;;;;;;0.00;0.00;;;;;;;12.15;32.11;98443.28;6158041;23;20178;-92
2023/03/11 10:53:54;;;;;;;0.13;0.13;;;;;;;11.81;31.07;98439.25;6164646;23;20017;-92
2023/03/11 10:56:27;;;;;;;0.05;0.05;;;;;;;11.82;32.85;98445.59;6188447;23;20155;-92
2023/03/11 10:58:53;;;;;;;0.33;0.33;;;;;;;11.62;32.26;98432.41;6185284;23;20012;-90
2023/03/11 11:01:22;;;;;;;0.13;0.13;;;;;;;11.60;32.46;98457.13;6183302;23;20535;-92
2023/03/11 11:03:51;;;;;;;0.55;0.55;;;;;;;11.56;32.19;98453.78;6160556;23;20325;-92
2023/03/11 11:06:25;;;;;;;0.25;0.22;;;;;;;11.59;30.68;98461.13;6196490;23;19985;-92
2023/03/11 11:09:10;;;;;;;0.10;0.10;;;;;;;11.67;30.98;98465.06;6162542;23;20027;-94
2023/03/11 11:11:38;;;;;;;0.00;0.00;;;;;;;11.73;31.64;98476.28;6165000;23;19993;-92
2023/03/11 11:14:04;;;;;;;1.98;0.52;;;;;;;11.73;31.00;98493.69;6160058;23;20009;-92
2023/03/11 11:16:31;;;;;;;0.00;0.00;;;;;;;11.63;29.88;98478.38;6159672;23;20044;-92
2023/03/11 11:19:13;;;;;;;0.10;0.10;;;;;;;11.91;31.43;98487.16;6153538;23;20017;-87
2023/03/11 11:21:42;;;;;;;0.00;0.00;;;;;;;12.00;30.71;98500.94;6179978;23;20463;-87
2023/03/11 11:24:14;;;;;;;0.10;0.10;;;;;;;11.88;30.58;98504.78;6169697;23;20009;-87
2023/03/11 11:26:39;;;;;;;0.10;0.10;;;;;;;11.77;29.96;98493.53;6151348;23;20044;-87
2023/03/11 11:29:06;;;;;;;0.15;0.15;;;;;;;11.72;30.22;98511.63;6180093;23;20013;-87
2023/03/11 11:31:32;;;;;;;1.35;0.90;;;;;;;11.85;30.53;98516.88;6153836;23;20452;-86
2023/03/11 11:33:58;;;;;;;0.25;0.17;;;;;;;11.77;29.45;98508.16;6153104;23;20044;-87
2023/03/11 11:36:29;;;;;;;0.00;0.00;;;;;;;11.97;31.17;98510.25;6153504;23;20017;-87
2023/03/11 11:38:55;;;;;;;0.20;0.20;;;;;;;11.96;30.20;98517.03;6153725;23;20325;-86
2023/03/11 11:41:22;;;;;;;0.20;0.20;;;;;;;11.89;30.71;98523.75;6179467;23;20044;-87
2023/03/11 11:43:53;;;;;;;0.00;0.00;;;;;;;11.81;31.04;98528.16;6128785;23;20112;-87
2023/03/11 11:46:42;;;;;;;0.47;0.47;;;;;;;12.08;30.59;98522.28;6151499;23;20504;-87
2023/03/11 11:49:14;;;;;;;0.00;0.00;;;;;;;12.11;30.22;98546.31;6127088;23;20072;-87
2023/03/11 11:51:45;;;;;;;0.00;0.00;;;;;;;11.72;29.55;98525.50;6152415;23;20025;-87
2023/03/11 11:54:18;;;;;;;0.00;0.00;;;;;;;12.05;30.66;98544.72;6155206;23;20013;-93
2023/03/11 11:56:44;;;;;;;0.00;0.00;;;;;;;12.17;31.04;98538.06;6155876;23;20066;-92
2023/03/11 11:59:18;;;;;;;0.00;0.00;;;;;;;12.12;32.11;98536.75;6183796;23;20005;-92
2023/03/11 12:01:53;;;;;;;0.00;0.00;;;;;;;12.37;32.16;98551.22;6153236;23;20028;-92